Time;durP1;ratioP1;P1;durP2;ratioP2;P2;SDS_P1;SDS_P2;PMS_P1;PMS_P2;Temp;Humidity;BMP_temperature;BMP_pressure;BME280_temperature;BME280_humidity;BME280_pressure;Samples;Min_cycle;Max_cycle;Signal;HPM_P1;HPM_P2
2023/01/31 00:01:17;;;;;;;45.70;29.48;;;6.00;76.20;;;;;;6218194;23;20052;-81
2023/01/31 00:03:43;;;;;;;49.05;27.63;;;5.90;76.10;;;;;;6245598;23;20003;-80
2023/01/31 00:06:16;;;;;;;46.90;28.90;;;5.90;76.30;;;;;;6245067;23;19996;-79
2023/01/31 00:08:44;;;;;;;47.47;27.92;;;5.90;76.30;;;;;;6245325;23;19996;-80
2023/01/31 00:11:10;;;;;;;46.67;29.50;;;5.80;76.50;;;;;;6244262;23;20007;-80
2023/01/31 00:13:36;;;;;;;50.80;29.35;;;5.80;76.40;;;;;;6245520;23;20004;-80
2023/01/31 00:16:02;;;;;;;46.42;29.15;;;5.70;76.60;;;;;;6244496;23;19997;-80
2023/01/31 00:18:28;;;;;;;45.15;27.35;;;5.70;76.70;;;;;;6245413;23;20004;-80
2023/01/31 00:20:53;;;;;;;46.58;27.73;;;5.60;76.70;;;;;;6218140;23;20008;-80
2023/01/31 00:23:19;;;;;;;47.90;29.23;;;5.70;77.00;;;;;;6245003;23;20028;-80
2023/01/31 00:25:45;;;;;;;47.03;28.70;;;5.70;77.00;;;;;;6217258;23;20347;-80
2023/01/31 00:28:11;;;;;;;45.80;28.50;;;5.70;77.00;;;;;;6245196;23;20001;-80
2023/01/31 00:30:36;;;;;;;43.78;25.88;;;5.60;76.90;;;;;;6245517;23;20074;-80
2023/01/31 00:33:02;;;;;;;49.80;29.23;;;5.60;77.00;;;;;;6244892;23;20000;-80
2023/01/31 00:35:28;;;;;;;48.10;27.48;;;5.60;77.10;;;;;;6217821;23;20004;-79
2023/01/31 00:37:53;;;;;;;48.80;28.77;;;5.60;77.30;;;;;;6218772;23;20009;-79
2023/01/31 00:40:19;;;;;;;47.80;27.40;;;5.60;77.40;;;;;;6220118;23;20127;-79
2023/01/31 00:42:45;;;;;;;49.42;28.92;;;5.70;77.40;;;;;;6246873;23;20318;-81
2023/01/31 00:45:11;;;;;;;46.35;28.13;;;5.70;77.20;;;;;;6246306;23;20059;-80
2023/01/31 00:47:37;;;;;;;45.30;28.05;;;5.70;77.00;;;;;;6246179;23;20054;-81
2023/01/31 00:50:03;;;;;;;43.35;26.50;;;5.70;77.10;;;;;;6219227;23;20016;-79
2023/01/31 00:52:28;;;;;;;41.75;26.42;;;5.70;77.00;;;;;;6246217;22;20012;-80
2023/01/31 00:54:54;;;;;;;50.25;28.60;;;5.70;77.00;;;;;;6246813;23;20001;-80
2023/01/31 00:57:20;;;;;;;51.03;29.85;;;5.70;77.00;;;;;;6246909;23;20008;-78
2023/01/31 00:59:45;;;;;;;38.05;25.20;;;5.70;77.70;;;;;;6245613;23;20143;-77
2023/01/31 01:02:11;;;;;;;50.78;29.00;;;5.70;77.00;;;;;;6246273;23;20004;-77
2023/01/31 01:04:37;;;;;;;50.63;29.35;;;5.70;77.00;;;;;;6245942;23;20078;-77
2023/01/31 01:07:02;;;;;;;48.08;29.42;;;5.70;77.10;;;;;;6246478;23;20001;-77
2023/01/31 01:09:28;;;;;;;43.58;27.20;;;5.60;76.90;;;;;;6219541;23;20034;-77
2023/01/31 01:11:54;;;;;;;46.10;29.83;;;5.60;77.00;;;;;;6245470;23;20000;-76
2023/01/31 01:14:19;;;;;;;43.63;27.40;;;5.70;77.10;;;;;;6245742;23;20000;-77
2023/01/31 01:16:45;;;;;;;50.65;29.60;;;5.70;76.90;;;;;;6219501;23;20024;-78
2023/01/31 01:19:15;;;;;;;45.58;28.13;;;5.70;77.00;;;;;;6218945;23;20419;-78
2023/01/31 01:21:43;;;;;;;48.28;27.98;;;5.70;77.00;;;;;;6219576;23;20012;-81
2023/01/31 01:24:13;;;;;;;48.83;28.80;;;5.60;76.90;;;;;;6245604;23;20441;-81
2023/01/31 01:26:40;;;;;;;49.42;27.77;;;5.60;77.00;;;;;;6246285;23;20003;-81
2023/01/31 01:29:06;;;;;;;47.85;28.17;;;5.60;77.00;;;;;;6246083;23;20373;-81
2023/01/31 01:31:31;;;;;;;47.42;29.27;;;5.60;77.10;;;;;;6246126;23;20006;-81
2023/01/31 01:34:04;;;;;;;46.08;27.10;;;5.60;77.20;;;;;;6219692;23;20426;-80
2023/01/31 01:36:32;;;;;;;45.55;27.65;;;5.60;77.10;;;;;;6246602;23;20000;-81
2023/01/31 01:38:58;;;;;;;47.53;28.45;;;5.60;77.20;;;;;;6245898;23;20000;-80
2023/01/31 01:41:24;;;;;;;48.85;27.77;;;5.60;77.20;;;;;;6246707;23;20300;-83
2023/01/31 01:43:53;;;;;;;47.33;28.80;;;5.60;77.30;;;;;;6245757;23;20368;-82
2023/01/31 01:46:27;;;;;;;44.58;27.50;;;5.60;77.40;;;;;;6246650;23;20083;-82
2023/01/31 01:49:18;;;;;;;45.08;26.95;;;5.60;77.50;;;;;;6246307;23;20387;-81
2023/01/31 01:51:47;;;;;;;43.10;26.27;;;5.60;77.50;;;;;;6244695;23;20047;-79
2023/01/31 01:54:20;;;;;;;47.33;28.08;;;5.60;77.60;;;;;;6246175;23;20079;-81
2023/01/31 01:56:50;;;;;;;47.05;28.55;;;5.60;77.60;;;;;;6245664;23;20000;-81
2023/01/31 01:59:21;;;;;;;49.45;29.17;;;5.60;77.50;;;;;;6246493;23;20031;-80
2023/01/31 02:01:49;;;;;;;45.95;27.70;;;5.60;77.50;;;;;;6219509;23;20435;-80
2023/01/31 02:04:24;;;;;;;46.30;27.67;;;5.50;77.60;;;;;;6245812;23;20004;-81
2023/01/31 02:06:50;;;;;;;44.60;26.85;;;5.50;77.70;;;;;;6218335;23;20043;-80
2023/01/31 02:09:30;;;;;;;48.47;29.15;;;5.50;77.70;;;;;;6219137;23;20012;-81
2023/01/31 02:11:57;;;;;;;47.28;26.73;;;5.50;77.60;;;;;;6245742;23;20058;-80
2023/01/31 02:14:24;;;;;;;48.40;28.25;;;5.50;77.60;;;;;;6218663;23;20419;-82
2023/01/31 02:16:50;;;;;;;50.75;29.15;;;5.50;77.50;;;;;;6245424;23;20138;-80
2023/01/31 02:19:49;;;;;;;44.35;26.65;;;5.50;77.40;;;;;;6245525;23;20059;-81
2023/01/31 02:22:37;;;;;;;42.67;26.43;;;5.50;77.50;;;;;;6245666;23;20008;-80
2023/01/31 02:25:21;;;;;;;45.72;26.35;;;5.40;77.50;;;;;;6246137;23;20081;-80
2023/01/31 02:28:04;;;;;;;53.00;28.38;;;5.40;77.60;;;;;;6246018;23;20012;-81
2023/01/31 02:30:30;;;;;;;48.45;27.58;;;5.30;77.70;;;;;;6245603;23;20414;-81
2023/01/31 02:33:31;;;;;;;43.45;26.30;;;5.30;77.50;;;;;;6245917;23;20007;-82
2023/01/31 02:36:18;;;;;;;46.63;27.67;;;5.30;77.70;;;;;;6161783;23;20058;-82
2023/01/31 02:38:47;;;;;;;46.00;27.92;;;5.30;77.80;;;;;;6246091;23;20002;-82
2023/01/31 02:41:47;;;;;;;44.78;27.33;;;5.30;77.70;;;;;;6245190;23;19996;-81
2023/01/31 02:47:29;;;;;;;46.45;27.20;;;5.30;78.00;;;;;;6245501;23;20012;-80
2023/01/31 02:50:05;;;;;;;45.10;26.95;;;5.30;78.00;;;;;;6245439;23;20023;-79
2023/01/31 02:52:35;;;;;;;43.15;25.20;;;5.30;77.70;;;;;;6245255;23;20090;-76
2023/01/31 02:57:54;;;;;;;46.40;27.13;;;5.20;77.60;;;;;;6245966;23;20015;-78
2023/01/31 03:00:22;;;;;;;44.42;27.05;;;5.20;77.70;;;;;;6218171;23;20015;-77
2023/01/31 03:02:48;;;;;;;44.83;27.30;;;5.20;77.80;;;;;;6245711;23;20071;-77
2023/01/31 03:05:16;;;;;;;40.95;25.77;;;5.10;77.90;;;;;;6244741;23;20505;-78
2023/01/31 03:07:47;;;;;;;42.78;27.17;;;5.10;78.00;;;;;;6245069;23;20004;-79
2023/01/31 03:10:22;;;;;;;55.00;30.80;;;5.20;77.80;;;;;;6245267;23;20015;-79
2023/01/31 03:13:01;;;;;;;47.22;28.67;;;5.00;77.50;;;;;;6245260;23;20010;-78
2023/01/31 03:19:12;;;;;;;53.90;30.13;;;4.90;77.30;;;;;;6245492;23;20342;-78
2023/01/31 03:21:46;;;;;;;53.00;29.58;;;4.80;77.40;;;;;;6217576;23;20008;-80
2023/01/31 03:24:14;;;;;;;48.20;28.85;;;4.80;77.60;;;;;;6243538;23;20000;-77
2023/01/31 03:26:40;;;;;;;45.72;26.58;;;4.70;77.50;;;;;;6244145;23;20004;-78
2023/01/31 03:29:10;;;;;;;44.72;28.38;;;4.70;77.60;;;;;;6218212;23;20040;-78
2023/01/31 03:31:48;;;;;;;44.88;27.45;;;4.70;77.80;;;;;;6245314;23;20364;-79
2023/01/31 03:34:16;;;;;;;45.65;27.27;;;4.60;77.80;;;;;;6244764;23;19996;-80
2023/01/31 03:36:47;;;;;;;47.08;28.30;;;4.60;77.90;;;;;;6245190;23;20007;-80
2023/01/31 03:39:33;;;;;;;50.05;29.52;;;4.60;78.00;;;;;;6245788;23;20000;-81
2023/01/31 03:42:08;;;;;;;50.58;29.20;;;4.60;78.00;;;;;;6219558;23;20035;-81
2023/01/31 03:45:01;;;;;;;46.20;27.50;;;4.70;78.10;;;;;;6245647;23;20059;-80
2023/01/31 03:47:50;;;;;;;50.97;29.20;;;4.70;78.20;;;;;;6245408;23;20023;-79
2023/01/31 03:50:39;;;;;;;41.73;26.13;;;4.70;78.00;;;;;;6243930;23;20390;-79
2023/01/31 03:53:37;;;;;;;47.25;27.40;;;4.70;77.70;;;;;;6238993;23;20343;-79
2023/01/31 03:56:19;;;;;;;48.55;29.00;;;4.70;77.80;;;;;;6228956;23;20008;-79
2023/01/31 03:58:49;;;;;;;45.55;27.13;;;4.80;77.90;;;;;;6244566;22;20012;-79
2023/01/31 04:01:17;;;;;;;47.17;28.35;;;4.70;77.90;;;;;;6242221;23;20047;-79
2023/01/31 04:04:00;;;;;;;44.03;25.10;;;4.70;77.90;;;;;;6244672;22;20437;-79
2023/01/31 04:06:26;;;;;;;45.13;27.33;;;4.60;78.10;;;;;;6244947;22;20076;-79
2023/01/31 04:08:52;;;;;;;44.70;27.83;;;4.70;78.20;;;;;;6243460;23;20331;-79
2023/01/31 04:11:20;;;;;;;45.22;27.38;;;4.70;78.20;;;;;;6245041;22;20007;-79
2023/01/31 04:13:46;;;;;;;45.35;25.90;;;4.70;78.10;;;;;;6247082;22;20024;-79
2023/01/31 04:16:11;;;;;;;41.67;25.85;;;4.70;78.00;;;;;;6245726;22;19996;-80
2023/01/31 04:18:37;;;;;;;43.55;27.30;;;4.70;78.00;;;;;;6245054;23;20005;-79
2023/01/31 04:21:03;;;;;;;49.33;27.55;;;4.70;78.10;;;;;;6245481;23;20031;-82
2023/01/31 04:23:29;;;;;;;39.70;24.42;;;4.70;78.10;;;;;;6247922;23;20031;-82
2023/01/31 04:25:55;;;;;;;45.03;26.92;;;4.70;77.90;;;;;;6247881;23;20418;-83
2023/01/31 04:28:21;;;;;;;39.88;25.58;;;4.70;78.10;;;;;;6246260;23;20039;-83
2023/01/31 04:30:53;;;;;;;45.63;26.77;;;4.70;78.20;;;;;;6247998;22;20007;-83
2023/01/31 04:33:18;;;;;;;44.97;27.42;;;4.70;78.20;;;;;;6247871;22;20134;-81
2023/01/31 04:35:44;;;;;;;44.72;28.00;;;4.80;78.10;;;;;;6245650;23;20047;-82
2023/01/31 04:38:10;;;;;;;44.08;26.60;;;4.80;78.00;;;;;;6245463;23;20000;-82
2023/01/31 04:40:36;;;;;;;41.65;26.42;;;4.80;77.80;;;;;;6247739;23;20004;-82
2023/01/31 04:43:01;;;;;;;42.83;27.38;;;4.80;77.80;;;;;;6247112;23;20370;-82
2023/01/31 04:45:27;;;;;;;42.13;26.75;;;4.80;78.00;;;;;;6245004;23;20427;-81
2023/01/31 04:47:53;;;;;;;41.85;26.80;;;4.80;78.00;;;;;;6245285;23;20493;-81
2023/01/31 04:50:18;;;;;;;43.75;25.50;;;4.80;78.00;;;;;;6244769;23;20442;-81
2023/01/31 04:52:47;;;;;;;46.00;27.60;;;4.80;78.00;;;;;;6246049;22;20016;-80
2023/01/31 04:55:13;;;;;;;43.30;27.13;;;4.80;78.00;;;;;;6246476;23;20111;-80
2023/01/31 04:57:39;;;;;;;50.45;30.00;;;4.80;77.90;;;;;;6246126;23;20028;-81
2023/01/31 05:00:05;;;;;;;42.90;26.25;;;4.80;78.10;;;;;;6219490;23;20008;-79
2023/01/31 05:02:31;;;;;;;44.28;26.35;;;4.80;78.00;;;;;;6245501;23;20015;-80
2023/01/31 05:04:56;;;;;;;45.30;27.77;;;4.70;78.00;;;;;;6245564;23;20311;-78
2023/01/31 05:07:24;;;;;;;45.50;26.85;;;4.70;78.10;;;;;;6246088;23;20011;-79
2023/01/31 05:09:49;;;;;;;41.40;24.70;;;4.70;78.20;;;;;;6246258;23;20004;-79
2023/01/31 05:12:15;;;;;;;40.05;25.52;;;4.70;78.20;;;;;;6219344;23;20418;-80
2023/01/31 05:14:41;;;;;;;39.70;25.58;;;4.60;78.30;;;;;;6245756;23;20370;-79
2023/01/31 05:17:06;;;;;;;46.08;27.20;;;4.60;78.40;;;;;;6219130;23;19992;-79
2023/01/31 05:19:32;;;;;;;42.90;25.98;;;4.60;78.50;;;;;;6246995;23;20280;-79
2023/01/31 05:22:01;;;;;;;43.03;25.95;;;4.60;78.50;;;;;;6246110;23;20027;-80
2023/01/31 05:24:29;;;;;;;46.70;27.37;;;4.60;78.60;;;;;;6246431;23;20011;-80
2023/01/31 05:27:00;;;;;;;43.03;26.00;;;4.60;78.60;;;;;;6246091;23;20297;-79
2023/01/31 05:29:28;;;;;;;43.72;25.77;;;4.60;78.70;;;;;;6219825;23;20031;-81
2023/01/31 05:31:56;;;;;;;41.17;26.55;;;4.60;78.70;;;;;;6219209;23;20403;-81
2023/01/31 05:34:24;;;;;;;41.78;26.30;;;4.60;78.70;;;;;;6245772;23;20079;-79
2023/01/31 05:36:50;;;;;;;45.60;26.23;;;4.60;78.70;;;;;;6246480;23;20023;-79
2023/01/31 05:39:16;;;;;;;41.38;25.40;;;4.60;78.80;;;;;;6219751;23;20008;-80
2023/01/31 05:41:42;;;;;;;50.15;29.63;;;4.60;78.80;;;;;;6219496;23;20089;-80
2023/01/31 05:44:09;;;;;;;48.65;28.40;;;4.60;78.90;;;;;;6219730;23;20061;-80
2023/01/31 05:46:35;;;;;;;49.05;28.77;;;4.60;79.00;;;;;;6245508;23;20000;-80
2023/01/31 05:49:01;;;;;;;44.42;26.98;;;4.60;79.00;;;;;;6219677;23;20004;-81
2023/01/31 05:51:27;;;;;;;47.50;27.92;;;4.70;79.10;;;;;;6218039;23;20046;-82
2023/01/31 05:53:53;;;;;;;43.25;25.83;;;4.70;79.20;;;;;;6244696;23;20000;-81
2023/01/31 05:56:22;;;;;;;47.40;27.85;;;4.70;79.10;;;;;;6245935;22;20004;-81
2023/01/31 05:58:49;;;;;;;44.35;26.10;;;4.70;79.10;;;;;;6245594;22;20000;-81
2023/01/31 06:01:20;;;;;;;39.15;25.45;;;4.70;79.00;;;;;;6246607;22;20003;-81
2023/01/31 06:03:46;;;;;;;40.58;26.23;;;4.70;79.10;;;;;;6244064;22;20330;-83
2023/01/31 06:06:12;;;;;;;41.92;26.77;;;4.70;79.00;;;;;;6246104;22;19997;-80
2023/01/31 06:08:40;;;;;;;40.33;25.65;;;4.70;79.20;;;;;;6246534;22;20000;-81
2023/01/31 06:11:07;;;;;;;42.58;25.52;;;4.70;79.50;;;;;;6243424;23;20008;-82
2023/01/31 06:13:32;;;;;;;40.65;25.55;;;4.70;79.70;;;;;;6245854;22;20004;-81
2023/01/31 06:15:59;;;;;;;40.50;24.98;;;4.70;79.70;;;;;;6245026;23;20024;-81
2023/01/31 06:18:25;;;;;;;41.20;25.35;;;4.80;79.70;;;;;;6243640;23;20004;-81
2023/01/31 06:20:52;;;;;;;41.88;25.05;;;4.80;79.70;;;;;;6243774;23;20058;-81
2023/01/31 06:23:18;;;;;;;45.42;28.13;;;4.80;79.90;;;;;;6243206;22;20511;-78
2023/01/31 06:25:48;;;;;;;41.90;26.98;;;4.80;80.10;;;;;;6244963;22;20000;-79
2023/01/31 06:28:14;;;;;;;38.03;24.02;;;4.90;80.20;;;;;;6244455;23;20012;-80
2023/01/31 06:30:39;;;;;;;41.75;25.13;;;4.90;80.10;;;;;;6244153;23;20487;-81
2023/01/31 06:33:05;;;;;;;40.47;25.45;;;4.80;80.00;;;;;;6244505;23;20004;-80
2023/01/31 06:35:32;;;;;;;42.97;24.92;;;4.80;80.20;;;;;;6245880;23;20015;-80
2023/01/31 06:37:58;;;;;;;45.10;26.25;;;4.80;80.30;;;;;;6246002;22;20028;-80
2023/01/31 06:40:24;;;;;;;43.00;26.50;;;4.90;80.10;;;;;;6245445;23;20399;-81
2023/01/31 06:42:50;;;;;;;44.38;26.63;;;4.90;79.90;;;;;;6244930;22;20094;-79
2023/01/31 06:45:15;;;;;;;42.08;26.08;;;4.90;79.90;;;;;;6242860;23;20059;-79
2023/01/31 06:47:43;;;;;;;43.70;23.88;;;4.90;80.00;;;;;;6244118;22;20075;-79
2023/01/31 06:50:10;;;;;;;44.88;27.92;;;4.90;80.10;;;;;;6243696;22;20000;-79
2023/01/31 06:52:36;;;;;;;43.08;26.40;;;5.00;80.00;;;;;;6244555;22;20070;-80
2023/01/31 06:55:02;;;;;;;42.92;26.38;;;5.00;79.90;;;;;;6245517;23;20004;-80
2023/01/31 06:57:27;;;;;;;41.17;24.27;;;5.00;79.80;;;;;;6245294;23;19996;-78
2023/01/31 06:59:53;;;;;;;41.10;25.40;;;5.00;80.20;;;;;;6218783;23;20311;-80
2023/01/31 07:02:19;;;;;;;41.10;25.20;;;5.10;79.90;;;;;;6245610;23;20012;-79
2023/01/31 07:04:44;;;;;;;38.63;24.00;;;5.10;80.80;;;;;;6245484;23;20054;-80
2023/01/31 07:07:10;;;;;;;37.95;23.33;;;5.20;80.40;;;;;;6218995;23;20016;-78
2023/01/31 07:09:37;;;;;;;39.30;24.60;;;5.40;80.50;;;;;;6245098;23;20377;-78
2023/01/31 07:12:03;;;;;;;45.75;25.63;;;5.50;79.90;;;;;;6245367;23;20000;-78
2023/01/31 07:14:29;;;;;;;44.65;25.92;;;5.40;79.20;;;;;;6245589;23;20000;-78
2023/01/31 07:16:54;;;;;;;41.10;26.05;;;5.40;78.90;;;;;;6244825;23;19996;-79
2023/01/31 07:19:20;;;;;;;40.53;26.98;;;5.40;78.80;;;;;;6218065;23;20008;-78
2023/01/31 07:21:47;;;;;;;43.40;25.95;;;5.40;78.80;;;;;;6245407;23;20027;-78
2023/01/31 07:24:14;;;;;;;42.67;25.48;;;5.30;78.90;;;;;;6245423;23;20050;-79
2023/01/31 07:26:40;;;;;;;44.50;27.38;;;5.30;79.10;;;;;;6245548;23;20004;-78
2023/01/31 07:29:05;;;;;;;44.17;27.30;;;5.30;79.40;;;;;;6218592;23;20489;-81
2023/01/31 07:31:31;;;;;;;45.85;27.38;;;5.40;80.00;;;;;;6245505;23;20000;-81
2023/01/31 07:33:57;;;;;;;42.10;26.15;;;5.40;79.50;;;;;;6235212;23;20415;-83
2023/01/31 07:36:25;;;;;;;44.50;28.02;;;5.40;79.50;;;;;;6215819;23;20008;-87
2023/01/31 07:38:55;;;;;;;42.92;26.00;;;5.40;79.50;;;;;;6242906;23;20062;-83
2023/01/31 07:41:22;;;;;;;;;;;5.50;79.60;;;;;;6242536;23;20008;-85
2023/01/31 07:43:48;;;;;;;40.17;24.70;;;5.50;79.50;;;;;;6215995;23;20306;-83
2023/01/31 07:46:14;;;;;;;44.92;26.70;;;5.50;79.50;;;;;;6243290;23;19996;-82
2023/01/31 07:48:40;;;;;;;45.17;27.67;;;5.50;79.50;;;;;;6242661;23;20002;-83
2023/01/31 07:51:07;;;;;;;43.50;26.33;;;5.60;80.10;;;;;;6242770;23;20112;-83
2023/01/31 07:53:40;;;;;;;43.85;25.95;;;5.60;79.60;;;;;;6245397;23;20088;-83
2023/01/31 07:56:12;;;;;;;38.58;25.15;;;5.60;79.70;;;;;;6245469;23;19996;-83
2023/01/31 07:58:40;;;;;;;43.42;27.38;;;5.60;79.70;;;;;;6245265;23;20000;-83
2023/01/31 08:03:51;;;;;;;45.33;26.90;;;5.70;79.70;;;;;;6244888;23;20512;-85
2023/01/31 08:06:17;;;;;;;44.05;26.48;;;5.60;79.60;;;;;;6218692;23;20035;-85
2023/01/31 08:08:44;;;;;;;46.78;27.88;;;5.70;79.70;;;;;;6245583;23;20032;-85
2023/01/31 08:11:10;;;;;;;45.55;27.77;;;5.70;79.80;;;;;;6245746;23;20010;-86
2023/01/31 08:13:37;;;;;;;44.67;26.92;;;5.70;80.00;;;;;;6245405;23;20035;-85
2023/01/31 08:16:04;;;;;;;46.40;27.65;;;5.80;80.10;;;;;;6218864;23;20031;-82
2023/01/31 08:18:30;;;;;;;40.92;27.60;;;5.80;79.90;;;;;;6218968;23;20115;-82
2023/01/31 08:20:56;;;;;;;42.63;27.15;;;5.90;79.80;;;;;;6245349;23;20530;-83
2023/01/31 08:23:45;;;;;;;40.72;25.30;;;5.90;79.80;;;;;;6245164;23;20330;-87
2023/01/31 08:26:20;;;;;;;44.78;27.45;;;5.80;79.50;;;;;;6218727;23;20016;-85
2023/01/31 08:28:47;;;;;;;49.05;27.10;;;6.10;79.50;;;;;;6245590;23;20027;-86
2023/01/31 08:31:19;;;;;;;50.25;26.95;;;6.10;79.40;;;;;;6218454;23;20393;-86
2023/01/31 08:33:45;;;;;;;50.00;28.73;;;6.20;79.30;;;;;;6245087;23;20000;-85
2023/01/31 08:36:12;;;;;;;48.80;28.52;;;6.30;79.30;;;;;;6245655;23;20074;-85
2023/01/31 08:38:38;;;;;;;47.88;27.40;;;6.30;79.20;;;;;;6218054;23;20077;-85
2023/01/31 08:41:03;;;;;;;42.42;26.13;;;6.40;79.20;;;;;;6217787;23;20435;-85
2023/01/31 08:43:29;;;;;;;43.85;28.25;;;6.50;79.10;;;;;;6244619;23;20020;-85
2023/01/31 08:45:55;;;;;;;41.65;27.00;;;6.60;78.90;;;;;;6245282;23;20007;-84
2023/01/31 08:48:21;;;;;;;44.15;26.25;;;6.70;78.60;;;;;;6214233;23;20020;-81
2023/01/31 08:50:47;;;;;;;48.65;29.60;;;6.80;78.50;;;;;;6243208;23;20004;-81
2023/01/31 08:53:13;;;;;;;42.78;27.88;;;6.90;77.90;;;;;;6241584;23;20779;-82
2023/01/31 08:55:38;;;;;;;45.72;27.65;;;7.00;77.90;;;;;;6244095;23;19997;-81
2023/01/31 08:58:06;;;;;;;49.75;29.17;;;7.10;77.70;;;;;;6244802;23;20327;-81
2023/01/31 09:00:32;;;;;;;46.90;27.85;;;7.20;77.70;;;;;;6219441;23;20424;-84
2023/01/31 09:02:59;;;;;;;48.13;29.65;;;7.30;77.60;;;;;;6245960;23;20403;-84
2023/01/31 09:05:26;;;;;;;46.42;26.73;;;7.50;77.00;;;;;;6245908;23;20000;-83
2023/01/31 09:07:52;;;;;;;44.55;28.45;;;7.60;76.80;;;;;;6245503;23;20079;-79
2023/01/31 09:10:19;;;;;;;45.13;27.63;;;7.70;76.70;;;;;;6244090;23;20051;-79
2023/01/31 09:12:46;;;;;;;45.15;28.10;;;7.90;76.50;;;;;;6244273;23;20004;-82
2023/01/31 09:15:12;;;;;;;48.30;28.05;;;8.10;76.30;;;;;;6244714;23;20374;-86
2023/01/31 09:17:38;;;;;;;42.25;27.48;;;8.30;76.00;;;;;;6245684;23;20008;-86
2023/01/31 09:20:06;;;;;;;48.72;28.80;;;8.50;76.00;;;;;;6245554;23;19996;-86
2023/01/31 09:22:33;;;;;;;45.15;27.42;;;8.70;75.20;;;;;;6245763;23;20014;-79
2023/01/31 09:24:59;;;;;;;43.25;27.27;;;8.90;74.80;;;;;;6244635;23;20003;-79
2023/01/31 09:27:26;;;;;;;44.00;27.10;;;9.10;74.60;;;;;;6244863;23;20004;-77
2023/01/31 09:29:52;;;;;;;48.70;28.67;;;9.30;74.30;;;;;;6219453;23;20038;-86
2023/01/31 09:32:19;;;;;;;46.22;29.83;;;9.50;73.90;;;;;;6245379;23;20011;-86
2023/01/31 09:34:46;;;;;;;42.55;28.77;;;9.70;73.10;;;;;;6245310;23;19996;-87
2023/01/31 09:37:12;;;;;;;47.05;28.27;;;9.90;72.50;;;;;;6246156;23;20000;-88
2023/01/31 09:39:37;;;;;;;44.70;27.88;;;10.00;72.00;;;;;;6242000;23;20304;-87
2023/01/31 09:42:16;;;;;;;45.05;28.02;;;10.20;71.80;;;;;;6246011;23;20534;-84
2023/01/31 09:44:44;;;;;;;47.00;28.55;;;10.40;71.10;;;;;;6245896;23;20035;-86
2023/01/31 09:47:27;;;;;;;46.05;27.63;;;10.60;70.60;;;;;;6218800;23;20008;-86
2023/01/31 09:50:04;;;;;;;37.50;25.48;;;10.80;70.20;;;;;;6245332;23;20028;-85
2023/01/31 09:52:31;;;;;;;47.58;27.38;;;10.90;69.60;;;;;;6232410;23;20020;-87
2023/01/31 09:54:58;;;;;;;50.33;29.20;;;11.10;69.30;;;;;;6242432;22;20431;-79
2023/01/31 09:57:51;;;;;;;49.33;29.70;;;11.30;69.00;;;;;;6245609;22;20425;-79
2023/01/31 10:00:27;;;;;;;48.22;28.67;;;11.40;68.70;;;;;;6246048;22;19996;-79
2023/01/31 10:02:55;;;;;;;48.70;28.70;;;11.60;68.60;;;;;;6243475;23;20035;-80
2023/01/31 10:05:36;;;;;;;48.92;29.80;;;11.70;68.60;;;;;;6245012;23;20008;-80
2023/01/31 10:08:17;;;;;;;44.15;29.45;;;11.80;68.40;;;;;;6243415;23;20018;-80
2023/01/31 10:10:46;;;;;;;48.17;29.92;;;12.00;68.30;;;;;;6245113;23;20000;-80
2023/01/31 10:13:38;;;;;;;45.55;27.45;;;12.10;67.90;;;;;;6244831;22;20011;-81
2023/01/31 10:16:19;;;;;;;45.03;28.58;;;12.10;67.50;;;;;;6244205;23;20013;-80
2023/01/31 10:18:52;;;;;;;46.15;28.00;;;12.20;67.60;;;;;;6246298;22;19996;-87
2023/01/31 10:21:24;;;;;;;50.65;29.80;;;12.30;67.40;;;;;;6246730;22;20467;-86
2023/01/31 10:23:58;;;;;;;43.13;27.13;;;12.50;67.10;;;;;;6243940;23;20030;-85
2023/01/31 10:26:36;;;;;;;45.00;29.17;;;12.60;66.80;;;;;;6245583;22;20001;-80
2023/01/31 10:29:36;;;;;;;47.97;29.95;;;12.70;66.60;;;;;;6244509;22;20003;-81
2023/01/31 10:32:04;;;;;;;44.40;28.58;;;12.80;66.40;;;;;;6164281;23;20012;-80
2023/01/31 10:34:37;;;;;;;40.90;28.48;;;13.00;66.10;;;;;;6243558;23;20004;-82
2023/01/31 10:37:11;;;;;;;42.58;28.67;;;13.10;65.80;;;;;;6244917;22;20000;-83
2023/01/31 10:39:44;;;;;;;47.42;29.25;;;13.30;65.70;;;;;;6244626;23;20000;-83
2023/01/31 10:42:18;;;;;;;41.15;27.02;;;13.40;65.50;;;;;;6243876;22;20347;-82
2023/01/31 10:45:15;;;;;;;45.58;29.25;;;13.40;64.80;;;;;;6242234;23;20046;-82
2023/01/31 10:47:55;;;;;;;44.90;28.35;;;13.60;64.70;;;;;;6245253;22;20000;-82
2023/01/31 10:50:47;;;;;;;42.33;27.40;;;13.70;64.50;;;;;;6244401;22;20003;-82
2023/01/31 10:53:33;;;;;;;39.88;27.40;;;13.80;63.60;;;;;;6244345;22;20020;-82
2023/01/31 10:56:21;;;;;;;41.10;26.90;;;13.80;64.20;;;;;;6218187;23;20099;-81
2023/01/31 10:58:47;;;;;;;48.85;27.73;;;13.90;63.60;;;;;;6243689;23;20035;-81
2023/01/31 11:01:14;;;;;;;41.20;27.95;;;14.00;63.50;;;;;;6244940;23;19996;-81
2023/01/31 11:03:47;;;;;;;42.95;27.90;;;14.10;63.40;;;;;;6244583;23;20011;-81
2023/01/31 11:06:14;;;;;;;42.60;27.30;;;14.20;63.50;;;;;;6244724;23;20004;-83
2023/01/31 11:08:56;;;;;;;43.70;28.02;;;14.40;63.60;;;;;;6243996;23;20031;-83
2023/01/31 11:11:23;;;;;;;40.72;27.23;;;14.50;63.90;;;;;;6217564;23;20091;-83
2023/01/31 11:14:01;;;;;;;42.83;27.58;;;14.60;63.00;;;;;;6244060;23;20035;-83
2023/01/31 11:16:30;;;;;;;43.38;28.85;;;14.80;62.70;;;;;;6241092;23;20023;-83
2023/01/31 11:18:57;;;;;;;38.40;26.27;;;14.90;62.50;;;;;;6238775;23;20124;-83
2023/01/31 11:21:26;;;;;;;40.40;24.10;;;15.00;61.50;;;;;;6238657;23;20004;-83
2023/01/31 11:24:17;;;;;;;37.75;25.42;;;15.10;61.10;;;;;;6239117;23;20007;-82
2023/01/31 11:27:05;;;;;;;35.58;23.42;;;15.30;60.80;;;;;;6224136;23;20016;-82
2023/01/31 11:29:42;;;;;;;37.60;23.60;;;15.40;60.20;;;;;;6245451;23;20087;-87
2023/01/31 11:32:19;;;;;;;35.78;22.15;;;15.50;58.90;;;;;;6245605;23;20031;-87
2023/01/31 11:34:58;;;;;;;36.90;22.48;;;15.50;57.10;;;;;;6218406;23;20058;-88
2023/01/31 11:37:24;;;;;;;33.05;22.65;;;15.60;56.90;;;;;;6245550;23;20000;-88
2023/01/31 11:39:59;;;;;;;31.85;22.50;;;15.70;56.70;;;;;;6244638;23;20040;-88
2023/01/31 11:42:25;;;;;;;39.13;24.75;;;15.70;56.50;;;;;;6245216;23;20047;-87
2023/01/31 11:44:59;;;;;;;39.40;24.20;;;15.80;56.40;;;;;;6243217;23;20347;-83
2023/01/31 11:47:48;;;;;;;38.53;24.45;;;15.90;56.20;;;;;;6244677;23;20004;-82
2023/01/31 11:50:25;;;;;;;38.03;25.00;;;16.10;56.40;;;;;;6244662;23;20004;-82
2023/01/31 11:53:02;;;;;;;40.97;27.15;;;16.30;56.90;;;;;;6242879;23;20044;-82
2023/01/31 11:55:39;;;;;;;40.97;27.10;;;16.70;56.20;;;;;;6243473;23;20019;-82
2023/01/31 11:58:31;;;;;;;38.25;26.27;;;17.40;56.00;;;;;;6244534;23;20323;-82
2023/01/31 12:01:21;;;;;;;38.58;27.50;;;18.70;54.60;;;;;;6218240;23;20427;-82
2023/01/31 12:04:05;;;;;;;37.28;27.38;;;19.90;51.00;;;;;;6224891;23;20013;-82
2023/01/31 12:06:36;;;;;;;39.25;27.35;;;21.00;49.20;;;;;;6244580;23;20004;-83
2023/01/31 12:09:18;;;;;;;39.05;29.50;;;22.00;47.30;;;;;;6243582;23;20031;-82
2023/01/31 12:11:55;;;;;;;39.50;28.65;;;22.80;45.60;;;;;;6244637;23;20331;-82
2023/01/31 12:14:23;;;;;;;38.80;29.40;;;23.50;42.30;;;;;;6244583;23;20032;-82
2023/01/31 12:16:54;;;;;;;39.00;30.35;;;23.80;40.80;;;;;;6244692;23;20454;-82
2023/01/31 12:19:42;;;;;;;37.08;29.08;;;24.00;40.60;;;;;;6243662;23;20000;-81
2023/01/31 12:22:17;;;;;;;40.08;29.88;;;24.30;39.80;;;;;;6218495;23;20012;-81
2023/01/31 12:25:02;;;;;;;41.35;31.58;;;24.50;39.00;;;;;;6244017;23;20057;-81
2023/01/31 12:28:00;;;;;;;38.80;30.08;;;24.50;38.60;;;;;;6217710;23;20012;-79
2023/01/31 12:30:26;;;;;;;39.08;29.65;;;24.60;39.10;;;;;;6245041;23;20054;-80
2023/01/31 12:32:52;;;;;;;42.33;30.17;;;24.60;38.40;;;;;;6218753;23;20016;-90
2023/01/31 12:35:36;;;;;;;43.90;30.05;;;24.60;38.10;;;;;;6246574;23;20004;-89
2023/01/31 12:38:08;;;;;;;41.72;28.35;;;24.60;37.80;;;;;;6246055;23;19997;-89
2023/01/31 12:40:54;;;;;;;41.17;29.50;;;24.50;37.30;;;;;;6246689;23;20078;-88
2023/01/31 12:43:45;;;;;;;39.15;29.15;;;24.40;37.30;;;;;;6246058;23;20004;-88
2023/01/31 12:46:39;;;;;;;50.80;33.30;;;24.40;37.70;;;;;;6246021;23;20007;-88
2023/01/31 12:49:08;;;;;;;41.95;31.45;;;24.00;38.50;;;;;;6242551;23;20086;-86
2023/01/31 12:51:58;;;;;;;42.28;32.58;;;23.70;39.60;;;;;;6246979;22;20000;-88
2023/01/31 12:54:23;;;;;;;;;;;23.40;41.00;;;;;;6240850;23;20006;-86
2023/01/31 12:56:54;;;;;;;44.78;33.92;;;23.10;42.00;;;;;;6247269;23;20022;-87
2023/01/31 12:59:43;;;;;;;47.95;35.17;;;22.80;42.60;;;;;;6243632;23;20003;-86
2023/01/31 13:02:15;;;;;;;44.28;32.75;;;22.60;43.30;;;;;;6245322;23;20000;-77
2023/01/31 13:04:45;;;;;;;43.33;33.47;;;22.40;43.50;;;;;;6245883;23;20012;-77
2023/01/31 13:07:45;;;;;;;43.80;33.88;;;22.30;43.80;;;;;;6246383;23;20008;-87